Cape Dorset Airport
CYTE : now visible

Airfield :











YOU CAN JOIN US ON...

 
LOGIN :

Register | Disclaimer

   EN    FR    IT 

 









Legend :    VFR   Marginal VFR   IFR   Intensive IFR   Very Intensive IFR
Visi :
Ceiling :
>= 8 km
>= 3000ft
5 to 8 km
1000 to 3000 ft
1500m to 5 km
500 to 1000 ft
800 to 1500m
200 to 500 ft
< 800m
< 200 ft
Symbols :   Thunderstorms  Fog  Heavy snow  Heavy precipitations  Wind > 20 kt






- Airport Elevation : 164 ft
- IATA code : YTE


CYTE - Cape Dorset

CURRENT METAR :
  • 211200Z 17015G20KT 15SM BKN004 OVC030 01/01 A2991 RMK ST6SC2 S8.6 AFT 01UTC/SNW CVR/MED PACK SLP134

EXPIRED METARs :
  • 211138Z AUTO 16017G22KT 9SM BKN004 BKN011 OVC032 01/01 A2990 RMK SLP132
  • 211100Z AUTO 16014G21KT 9SM BKN004 OVC011 01/01 A2990 RMK SLP132
  • 211055Z AUTO 16015G22KT 9SM BKN004 OVC011 01/01 A2990 RMK SLP131
  • 211015Z AUTO 17015G24KT 9SM SCT004 OVC013 01/01 A2989 RMK SLP128
  • 211003Z AUTO 16017G23KT 9SM -RA SCT004 OVC013 01/01 A2989 RMK SLP126
  • 210924Z AUTO 16017G22KT 9SM -RA BKN004 BKN017 OVC023 01/00 A2988 RMK ICG PAST HR SLP124

TAF AMD TAF CYTE
Valid from the 21 at 10:00 until the 21 at 19:00 UTC


211035Z 2110/2119 17015G25KT P6SM -RA SCT004 OVC012
TEMPO 2110/2114 4SM -RASN BR OVC004
PROB30 2110/2114 2SM -FZRA BR
FM211400 20012G22KT P6SM -RA SCT004 OVC012
TEMPO 2114/2119 3SM -RA BR OVC004 RMK FCST BASED ON AUTO OBS. NXT FCST BY 211300Z



MET'MAP, your aeronautical weather chart ! - Copyright ORBIFLY December 2007 - Disclaimer

ORBIFLY MET'MAP TEAM :

Programming & Development : Alexandra Zaïnal
Concept & Development : Baudouin d'Aumeries
Co-Development & Prog : Marc-Olivier Méhu
Technical & hardware support : Manuel Goepfert

Contact : metmap@orbifly.com




SOURCES & CREDITS :

   NOAA       Earth
Advisory